| time (UTC) | temp F | wind direction | speed MPH | gust MPH | rain 1hr in | rain 24hr in | rain mn in | humidity % | barometer mb |
| 20260507213146 | 54 | 0.0 | 0.0 | 0.00 | 0.00 | 0.00 | 68 | 1016.0 | |
| 20260507212050 | 54 | 0.0 | 0.0 | 0.00 | 0.00 | 0.00 | 67 | 1016.0 | |
| 20260507211154 | 55 | 321 | 0.0 | 1.0 | 0.00 | 0.00 | 0.00 | 67 | 1016.0 |
| 20260507210037 | 55 | 353 | 0.0 | 1.0 | 0.00 | 0.00 | 0.00 | 67 | 1015.9 |
| 20260507205139 | 55 | 358 | 0.0 | 1.0 | 0.00 | 0.00 | 0.00 | 67 | 1015.9 |
| 20260507204020 | 56 | 288 | 1.0 | 2.0 | 0.00 | 0.00 | 0.00 | 66 | 1015.7 |
| 20260507203044 | 56 | 319 | 1.0 | 2.0 | 0.00 | 0.00 | 0.00 | 65 | 1015.5 |
| 20260507202149 | 57 | 0.0 | 1.0 | 0.00 | 0.00 | 0.00 | 62 | 1015.3 | |
| 20260507201028 | 58 | 0.0 | 0.0 | 0.00 | 0.00 | 0.00 | 56 | 1015.1 | |
| 20260507200053 | 58 | 0.0 | 1.0 | 0.00 | 0.00 | 0.00 | 56 | 1014.8 | |
| 20260507195118 | 59 | 317 | 0.0 | 1.0 | 0.00 | 0.00 | 0.00 | 54 | 1014.7 |
| 20260507194038 | 59 | 325 | 1.0 | 2.0 | 0.00 | 0.00 | 0.00 | 53 | 1014.5 |
| 20260507193103 | 60 | 0.0 | 1.0 | 0.00 | 0.00 | 0.00 | 53 | 1014.3 | |
| 20260507192024 | 60 | 14 | 0.0 | 1.0 | 0.00 | 0.00 | 0.00 | 52 | 1014.1 |
| 20260507191128 | 60 | 7 | 0.0 | 2.0 | 0.00 | 0.00 | 0.00 | 51 | 1014.0 |
| 20260507190152 | 61 | 20 | 1.0 | 2.0 | 0.00 | 0.00 | 0.00 | 52 | 1013.8 |
| 20260507185034 | 61 | 347 | 0.0 | 2.0 | 0.00 | 0.00 | 0.00 | 50 | 1013.5 |
| 20260507184058 | 62 | 12 | 1.0 | 4.0 | 0.00 | 0.00 | 0.00 | 50 | 1013.3 |
| 20260507183017 | 62 | 358 | 0.0 | 2.0 | 0.00 | 0.00 | 0.00 | 49 | 1013.2 |
| 20260507182042 | 63 | 312 | 1.0 | 2.0 | 0.00 | 0.00 | 0.00 | 48 | 1013.1 |
| 20260507181106 | 63 | 352 | 1.0 | 2.0 | 0.00 | 0.00 | 0.00 | 46 | 1012.8 |
| 20260507180027 | 64 | 18 | 1.0 | 4.0 | 0.00 | 0.00 | 0.00 | 45 | 1012.7 |
| 20260507175051 | 65 | 310 | 1.0 | 7.0 | 0.00 | 0.00 | 0.00 | 44 | 1012.6 |
| 20260507174116 | 65 | 167 | 1.0 | 4.0 | 0.00 | 0.00 | 0.00 | 43 | 1012.4 |
| 20260507173037 | 67 | 287 | 1.0 | 6.0 | 0.00 | 0.00 | 0.00 | 42 | 1012.2 |
| 20260507172100 | 68 | 263 | 1.0 | 4.0 | 0.00 | 0.00 | 0.00 | 41 | 1012.2 |
| 20260507171024 | 69 | 306 | 1.0 | 3.0 | 0.00 | 0.00 | 0.00 | 40 | 1012.1 |
| 20260507170045 | 70 | 350 | 1.0 | 3.0 | 0.00 | 0.00 | 0.00 | 37 | 1011.9 |
| 20260507165110 | 70 | 275 | 1.0 | 3.0 | 0.00 | 0.00 | 0.00 | 35 | 1011.9 |
| 20260507164029 | 69 | 266 | 2.0 | 4.0 | 0.00 | 0.00 | 0.00 | 35 | 1012.0 |
| 20260507163055 | 68 | 285 | 1.0 | 3.0 | 0.00 | 0.00 | 0.00 | 37 | 1011.9 |
| 20260507162017 | 70 | 326 | 0.0 | 2.0 | 0.00 | 0.00 | 0.00 | 36 | 1012.0 |
| 20260507161039 | 71 | 303 | 1.0 | 4.0 | 0.00 | 0.00 | 0.00 | 34 | 1012.0 |
| 20260507160104 | 70 | 345 | 0.0 | 3.0 | 0.00 | 0.00 | 0.00 | 34 | 1012.0 |
| 20260507155023 | 69 | 302 | 1.0 | 4.0 | 0.00 | 0.00 | 0.00 | 35 | 1012.0 |
| 20260507154048 | 71 | 264 | 1.0 | 6.0 | 0.00 | 0.03 | 0.00 | 34 | 1012.0 |
| 20260507153114 | 72 | 303 | 2.0 | 6.0 | 0.00 | 0.05 | 0.00 | 32 | 1012.0 |
| 20260507152033 | 73 | 337 | 1.0 | 3.0 | 0.00 | 0.07 | 0.00 | 31 | 1012.0 |
| 20260507151137 | 72 | 259 | 1.0 | 4.0 | 0.00 | 0.09 | 0.00 | 30 | 1012.1 |
| 20260507150058 | 72 | 315 | 1.0 | 3.0 | 0.00 | 0.12 | 0.00 | 30 | 1012.2 |
| 20260507145043 | 72 | 341 | 1.0 | 4.0 | 0.00 | 0.12 | 0.00 | 30 | 1012.2 |
| 20260507144107 | 71 | 292 | 1.0 | 3.0 | 0.00 | 0.12 | 0.00 | 34 | 1012.3 |
| 20260507143027 | 72 | 300 | 2.0 | 6.0 | 0.00 | 0.12 | 0.00 | 32 | 1012.4 |
| 20260507142131 | 71 | 343 | 1.0 | 3.0 | 0.00 | 0.12 | 0.00 | 32 | 1012.5 |
| 20260507141117 | 71 | 40 | 2.0 | 4.0 | 0.00 | 0.12 | 0.00 | 31 | 1012.5 |
| 20260507140036 | 71 | 268 | 3.0 | 6.0 | 0.00 | 0.12 | 0.00 | 29 | 1012.6 |
| 20260507135101 | 71 | 310 | 1.0 | 3.0 | 0.00 | 0.12 | 0.00 | 32 | 1012.7 |
| 20260507134021 | 70 | 123 | 1.0 | 3.0 | 0.00 | 0.12 | 0.00 | 31 | 1012.8 |
| 20260507133046 | 71 | 277 | 2.0 | 3.0 | 0.00 | 0.12 | 0.00 | 31 | 1013.0 |
| 20260507132110 | 70 | 135 | 1.0 | 3.0 | 0.00 | 0.12 | 0.00 | 31 | 1013.1 |
| 20260507131031 | 71 | 274 | 1.0 | 3.0 | 0.00 | 0.12 | 0.00 | 32 | 1013.3 |
| 20260507130055 | 69 | 16 | 1.0 | 2.0 | 0.00 | 0.12 | 0.00 | 33 | 1013.3 |
| 20260507125119 | 69 | 263 | 1.0 | 6.0 | 0.00 | 0.12 | 0.00 | 34 | 1013.3 |
| 20260507124040 | 68 | 0 | 1.0 | 4.0 | 0.00 | 0.12 | 0.00 | 34 | 1013.5 |
| 20260507123104 | 68 | 336 | 1.0 | 7.0 | 0.00 | 0.13 | 0.00 | 35 | 1013.6 |
| 20260507122026 | 68 | 352 | 1.0 | 3.0 | 0.00 | 0.14 | 0.00 | 36 | 1013.7 |
| 20260507121129 | 66 | 281 | 1.0 | 6.0 | 0.00 | 0.16 | 0.00 | 33 | 1013.8 |
| 20260507120114 | 68 | 293 | 1.0 | 3.0 | 0.00 | 0.17 | 0.00 | 32 | 1013.7 |
| 20260507115033 | 68 | 225 | 1.0 | 3.0 | 0.00 | 0.19 | 0.00 | 32 | 1013.7 |
| 20260507114059 | 66 | 341 | 1.0 | 3.0 | 0.00 | 0.20 | 0.00 | 39 | 1013.8 |
| 20260507113019 | 65 | 265 | 1.0 | 3.0 | 0.00 | 0.20 | 0.00 | 40 | 1013.9 |
| 20260507112044 | 66 | 39 | 1.0 | 2.0 | 0.00 | 0.21 | 0.00 | 41 | 1014.1 |
| 20260507111107 | 64 | 90 | 1.0 | 4.0 | 0.00 | 0.22 | 0.00 | 43 | 1014.2 |
| 20260507110028 | 65 | 96 | 1.0 | 3.0 | 0.00 | 0.23 | 0.00 | 44 | 1014.4 |
| 20260507105053 | 63 | 88 | 1.0 | 3.0 | 0.00 | 0.25 | 0.00 | 45 | 1014.4 |
| 20260507104157 | 64 | 95 | 1.0 | 3.0 | 0.00 | 0.26 | 0.00 | 46 | 1014.5 |
| 20260507103037 | 64 | 351 | 1.0 | 2.0 | 0.00 | 0.27 | 0.00 | 46 | 1014.7 |
| 20260507102101 | 63 | 89 | 1.0 | 4.0 | 0.00 | 0.27 | 0.00 | 48 | 1014.8 |
| 20260507101103 | 63 | 96 | 2.0 | 4.0 | 0.00 | 0.27 | 0.00 | 47 | 1014.9 |
| 20260507100047 | 63 | 76 | 2.0 | 4.0 | 0.00 | 0.27 | 0.00 | 47 | 1015.0 |
| 20260507095110 | 63 | 100 | 1.0 | 4.0 | 0.00 | 0.27 | 0.00 | 48 | 1014.9 |
| 20260507094032 | 62 | 106 | 1.0 | 3.0 | 0.00 | 0.27 | 0.00 | 50 | 1015.0 |
| 20260507093056 | 62 | 82 | 1.0 | 6.0 | 0.00 | 0.27 | 0.00 | 52 | 1015.1 |
| 20260507092016 | 61 | 50 | 1.0 | 4.0 | 0.00 | 0.27 | 0.00 | 55 | 1015.1 |
| 20260507091040 | 60 | 123 | 2.0 | 4.0 | 0.00 | 0.27 | 0.00 | 57 | 1015.2 |
| 20260507090145 | 59 | 101 | 3.0 | 7.0 | 0.00 | 0.27 | 0.00 | 58 | 1015.2 |
| 20260507085025 | 59 | 131 | 3.0 | 8.0 | 0.00 | 0.28 | 0.00 | 61 | 1015.2 |
| 20260507084050 | 58 | 68 | 2.0 | 6.0 | 0.00 | 0.28 | 0.00 | 63 | 1015.4 |
| 20260507083114 | 58 | 102 | 3.0 | 6.0 | 0.00 | 0.28 | 0.00 | 65 | 1015.3 |
| 20260507082115 | 57 | 103 | 2.0 | 7.0 | 0.00 | 0.28 | 0.00 | 66 | 1015.4 |
| 20260507081058 | 56 | 92 | 3.0 | 7.0 | 0.00 | 0.28 | 0.00 | 67 | 1015.5 |
| 20260507080019 | 55 | 107 | 3.0 | 6.0 | 0.00 | 0.28 | 0.00 | 71 | 1015.6 |
| 20260507075124 | 55 | 90 | 2.0 | 6.0 | 0.00 | 0.28 | 0.00 | 71 | 1015.8 |
| 20260507074108 | 55 | 108 | 2.0 | 6.0 | 0.00 | 0.28 | 0.00 | 72 | 1015.9 |
| 20260507073028 | 54 | 122 | 2.0 | 6.0 | 0.00 | 0.28 | 0.00 | 75 | 1016.1 |
| 20260507072053 | 53 | 52 | 1.0 | 2.0 | 0.00 | 0.28 | 0.00 | 77 | 1015.9 |
| 20260507071118 | 52 | 136 | 1.0 | 2.0 | 0.00 | 0.29 | 0.00 | 78 | 1016.0 |
| 20260507070038 | 52 | 69 | 1.0 | 3.0 | 0.00 | 0.30 | 0.00 | 80 | 1015.9 |
| 20260507065102 | 51 | 94 | 0.0 | 2.0 | 0.00 | 0.31 | 0.00 | 84 | 1015.9 |
| 20260507064023 | 50 | 61 | 1.0 | 3.0 | 0.00 | 0.31 | 0.00 | 88 | 1015.9 |
| 20260507063047 | 49 | 0.0 | 2.0 | 0.00 | 0.31 | 0.00 | 89 | 1016.0 | |
| 20260507062111 | 49 | 91 | 0.0 | 1.0 | 0.00 | 0.31 | 0.00 | 90 | 1016.0 |
| 20260507061032 | 49 | 85 | 0.0 | 2.0 | 0.00 | 0.31 | 0.00 | 90 | 1015.9 |
| 20260507060056 | 48 | 105 | 0.0 | 1.0 | 0.00 | 0.31 | 0.00 | 91 | 1015.7 |
| 20260507055017 | 48 | 66 | 0.0 | 2.0 | 0.00 | 0.31 | 0.00 | 91 | 1015.8 |
| 20260507054040 | 48 | 55 | 0.0 | 2.0 | 0.00 | 0.31 | 0.00 | 92 | 1015.8 |
| 20260507053146 | 48 | 66 | 0.0 | 2.0 | 0.00 | 0.31 | 0.00 | 92 | 1015.7 |
| 20260507052027 | 48 | 78 | 0.0 | 2.0 | 0.00 | 0.31 | 0.00 | 92 | 1015.7 |
| 20260507051130 | 47 | 63 | 0.0 | 1.0 | 0.00 | 0.31 | 0.00 | 92 | 1015.5 |
| 20260507050115 | 47 | 49 | 0.0 | 1.0 | 0.00 | 0.31 | 0.00 | 93 | 1015.4 |
| 20260507045035 | 47 | 56 | 0.0 | 1.0 | 0.00 | 0.31 | 0.00 | 93 | 1015.3 |
| 20260507044100 | 47 | 0.0 | 0.0 | 0.00 | 0.31 | 0.00 | 93 | 1015.2 | |
| 20260507043021 | 47 | 0.0 | 0.0 | 0.00 | 0.31 | 0.00 | 94 | 1015.2 | |
| 20260507042044 | 47 | 0.0 | 0.0 | 0.00 | 0.31 | 0.00 | 94 | 1015.1 | |
| 20260507041110 | 47 | 0.0 | 1.0 | 0.00 | 0.31 | 0.00 | 94 | 1015.1 | |
| 20260507040030 | 47 | 0.0 | 1.0 | 0.00 | 0.31 | 0.00 | 94 | 1015.1 | |
| 20260507035054 | 46 | 0.0 | 0.0 | 0.00 | 0.31 | 0.00 | 94 | 1015.1 | |
| 20260507034118 | 46 | 0.0 | 0.0 | 0.00 | 0.31 | 0.00 | 94 | 1015.1 | |
| 20260507033039 | 46 | 0.0 | 0.0 | 0.00 | 0.31 | 0.00 | 94 | 1015.1 | |
| 20260507032103 | 46 | 0.0 | 0.0 | 0.00 | 0.31 | 0.00 | 94 | 1015.0 | |
| 20260507031023 | 46 | 0.0 | 0.0 | 0.00 | 0.31 | 0.00 | 95 | 1015.0 | |
| 20260507030048 | 46 | 0.0 | 1.0 | 0.00 | 0.31 | 0.00 | 94 | 1015.0 | |
| 20260507025153 | 46 | 0.0 | 0.0 | 0.00 | 0.31 | 0.00 | 94 | 1015.1 | |
| 20260507024032 | 46 | 8 | 0.0 | 1.0 | 0.00 | 0.31 | 0.00 | 94 | 1015.0 |
| 20260507023057 | 46 | 0.0 | 0.0 | 0.00 | 0.31 | 0.00 | 94 | 1014.7 | |
| 20260507022018 | 46 | 0.0 | 0.0 | 0.00 | 0.31 | 0.00 | 94 | 1014.7 | |
| 20260507021042 | 46 | 0.0 | 0.0 | 0.00 | 0.31 | 0.00 | 94 | 1014.6 | |
| 20260507020146 | 46 | 67 | 1.0 | 1.0 | 0.00 | 0.31 | 0.00 | 95 | 1014.6 |
| 20260507015026 | 46 | 54 | 0.0 | 1.0 | 0.00 | 0.31 | 0.00 | 96 | 1014.5 |
| 20260507014053 | 46 | 0.0 | 1.0 | 0.00 | 0.31 | 0.00 | 96 | 1014.4 | |
| 20260507013116 | 46 | 0.0 | 0.0 | 0.00 | 0.31 | 0.00 | 96 | 1014.4 | |
| 20260507012036 | 45 | 0.0 | 1.0 | 0.00 | 0.31 | 0.00 | 96 | 1014.3 | |
| 20260507011100 | 45 | 0.0 | 0.0 | 0.00 | 0.31 | 0.00 | 96 | 1014.3 | |
| 20260507010021 | 45 | 0.0 | 0.0 | 0.00 | 0.31 | 0.00 | 96 | 1014.3 | |
| 20260507005046 | 45 | 0.0 | 0.0 | 0.00 | 0.31 | 0.00 | 96 | 1014.4 | |
| 20260507004110 | 46 | 0.0 | 0.0 | 0.00 | 0.31 | 0.00 | 96 | 1014.2 | |
| 20260507003031 | 46 | 0.0 | 0.0 | 0.00 | 0.31 | 0.00 | 96 | 1014.2 | |
| 20260507002054 | 46 | 0.0 | 0.0 | 0.00 | 0.31 | 0.00 | 96 | 1014.2 | |
| 20260507001119 | 46 | 0.0 | 0.0 | 0.00 | 0.31 | 0.00 | 96 | 1014.1 | |
| 20260507000040 | 47 | 0.0 | 0.0 | 0.00 | 0.31 | 0.00 | 96 | 1014.1 | |
| 20260506235143 | 47 | 0.0 | 0.0 | 0.00 | 0.31 | 0.00 | 95 | 1014.1 | |
| 20260506234025 | 47 | 0.0 | 0.0 | 0.00 | 0.31 | 0.00 | 95 | 1014.2 | |
| 20260506233049 | 47 | 0.0 | 0.0 | 0.00 | 0.31 | 0.00 | 95 | 1014.2 | |
| 20260506232113 | 47 | 0.0 | 0.0 | 0.00 | 0.31 | 0.00 | 94 | 1014.3 | |
| 20260506231113 | 47 | 0.0 | 0.0 | 0.00 | 0.31 | 0.00 | 94 | 1014.4 | |
| 20260506230058 | 48 | 0.0 | 0.0 | 0.00 | 0.31 | 0.00 | 93 | 1014.3 | |
| 20260506225018 | 48 | 0.0 | 0.0 | 0.00 | 0.31 | 0.00 | 93 | 1014.2 | |
| 20260506224042 | 49 | 356 | 0.0 | 1.0 | 0.00 | 0.31 | 0.00 | 94 | 1014.3 |
| 20260506223108 | 49 | 0.0 | 0.0 | 0.00 | 0.31 | 0.00 | 94 | 1014.3 | |
| 20260506222028 | 49 | 0.0 | 0.0 | 0.00 | 0.31 | 0.00 | 95 | 1014.4 | |
| 20260506221052 | 49 | 0.0 | 0.0 | 0.00 | 0.31 | 0.00 | 95 | 1014.2 | |
| 20260506220156 | 48 | 27 | 0.0 | 1.0 | 0.00 | 0.31 | 0.00 | 95 | 1014.2 |
| 20260506215037 | 49 | 69 | 0.0 | 1.0 | 0.00 | 0.31 | 0.31 | 95 | 1014.0 |
| 20260506214101 | 49 | 0.0 | 0.0 | 0.00 | 0.31 | 0.31 | 94 | 1014.1 |